createdAt,value
2017-05-06T00:00:02.385Z,928.36
2017-05-06T00:00:22.352Z,928.37
2017-05-06T00:00:41.765Z,928.34
2017-05-06T00:01:01.715Z,928.36
2017-05-06T00:01:21.087Z,928.35
2017-05-06T00:01:40.508Z,928.3
2017-05-06T00:02:00.470Z,928.3
2017-05-06T00:02:20.454Z,928.33
2017-05-06T00:02:40.452Z,928.29
2017-05-06T00:03:00.536Z,928.29
2017-05-06T00:03:19.947Z,928.26
2017-05-06T00:03:39.932Z,928.3
2017-05-06T00:03:59.946Z,928.31
2017-05-06T00:04:19.901Z,928.36
2017-05-06T00:04:39.854Z,928.34
2017-05-06T00:04:59.838Z,928.33
2017-05-06T00:05:18.679Z,928.34
2017-05-06T00:05:38.623Z,928.35
2017-05-06T00:05:58.039Z,928.36
2017-05-06T00:06:17.451Z,928.35
2017-05-06T00:06:37.450Z,928.36
2017-05-06T00:06:56.887Z,928.38
2017-05-06T00:07:16.277Z,928.37
2017-05-06T00:07:36.266Z,928.37
2017-05-06T00:07:56.411Z,928.32
2017-05-06T00:08:15.837Z,928.3
2017-05-06T00:08:35.826Z,928.28
2017-05-06T00:08:55.815Z,928.22
2017-05-06T00:09:15.786Z,928.22
2017-05-06T00:09:35.790Z,928.26
2017-05-06T00:09:55.755Z,928.31
2017-05-06T00:10:14.603Z,928.31
2017-05-06T00:10:34.584Z,928.38
2017-05-06T00:10:54.555Z,928.33
2017-05-06T00:11:13.395Z,928.35
2017-05-06T00:11:32.815Z,928.39
2017-05-06T00:11:52.771Z,928.36
2017-05-06T00:12:12.756Z,928.39
2017-05-06T00:12:32.174Z,928.34
2017-05-06T00:12:51.591Z,928.4
2017-05-06T00:13:11.532Z,928.39
2017-05-06T00:13:31.504Z,928.37
2017-05-06T00:13:51.483Z,928.38
2017-05-06T00:14:11.438Z,928.36
2017-05-06T00:14:30.823Z,928.38
2017-05-06T00:14:50.812Z,928.39
2017-05-06T00:15:36.467Z,928.35
2017-05-06T00:16:39.648Z,928.35
2017-05-06T00:16:59.616Z,928.33
2017-05-06T00:17:19.052Z,928.33
2017-05-06T00:17:39.009Z,928.3
2017-05-06T00:17:59.148Z,928.25
2017-05-06T00:18:18.577Z,928.2
2017-05-06T00:18:38.570Z,928.2
2017-05-06T00:18:58.528Z,928.13
2017-05-06T00:19:17.962Z,928.18
2017-05-06T00:19:37.932Z,928.16
2017-05-06T00:19:57.906Z,928.17
2017-05-06T00:20:17.311Z,928.15
2017-05-06T00:20:37.257Z,928.15
2017-05-06T00:20:57.242Z,928.16
2017-05-06T00:21:16.101Z,928.15
2017-05-06T00:21:36.120Z,928.16
2017-05-06T00:21:56.099Z,928.15
2017-05-06T00:22:16.089Z,928.19
2017-05-06T00:22:36.055Z,928.18
2017-05-06T00:22:56.048Z,928.13
2017-05-06T00:23:16.030Z,928.19
2017-05-06T00:23:36.006Z,928.16
2017-05-06T00:23:55.400Z,928.21
2017-05-06T00:24:14.827Z,928.18
2017-05-06T00:24:34.821Z,928.23
2017-05-06T00:24:54.249Z,928.24
2017-05-06T00:25:14.204Z,928.25
2017-05-06T00:25:34.174Z,928.21
2017-05-06T00:25:54.209Z,928.22
2017-05-06T00:26:14.213Z,928.19
2017-05-06T00:26:33.629Z,928.2
2017-05-06T00:26:53.613Z,928.14
2017-05-06T00:27:13.572Z,928.12
2017-05-06T00:27:32.459Z,928.18
2017-05-06T00:27:52.426Z,928.16
2017-05-06T00:28:12.558Z,928.15
2017-05-06T00:28:32.033Z,928.18
2017-05-06T00:28:52.006Z,928.16
2017-05-06T00:29:11.982Z,928.14
2017-05-06T00:29:31.423Z,928.1
2017-05-06T00:29:51.415Z,928.17
2017-05-06T00:30:11.413Z,928.17
2017-05-06T00:30:30.235Z,928.17
2017-05-06T00:30:50.223Z,928.17
2017-05-06T00:31:10.155Z,928.17
2017-05-06T00:31:30.151Z,928.12
2017-05-06T00:31:49.536Z,928.14
2017-05-06T00:32:09.496Z,928.14
2017-05-06T00:32:29.474Z,928.11
2017-05-06T00:32:49.447Z,928.08
2017-05-06T00:33:09.538Z,928.09
2017-05-06T00:33:29.499Z,928.08
2017-05-06T00:33:49.488Z,928.04
2017-05-06T00:34:09.509Z,928.04
2017-05-06T00:34:29.486Z,928.04
2017-05-06T00:34:48.918Z,927.97
2017-05-06T00:35:08.914Z,927.98
2017-05-06T00:35:28.338Z,928.02
2017-05-06T00:35:47.720Z,928.01
2017-05-06T00:36:07.687Z,927.99
2017-05-06T00:36:27.692Z,928
2017-05-06T00:36:47.677Z,928.03
2017-05-06T00:37:07.630Z,928.01
2017-05-06T00:37:27.044Z,928.02
2017-05-06T00:37:46.999Z,927.97
2017-05-06T00:38:07.007Z,927.91
2017-05-06T00:38:26.466Z,927.91
2017-05-06T00:38:46.459Z,927.93
2017-05-06T00:39:06.431Z,927.93
2017-05-06T00:39:25.852Z,927.87
2017-05-06T00:39:45.852Z,927.88
2017-05-06T00:40:05.824Z,927.81
2017-05-06T00:40:25.825Z,927.85
2017-05-06T00:40:45.877Z,927.88
2017-05-06T00:41:05.845Z,927.85
2017-05-06T00:41:25.284Z,927.87
2017-05-06T00:41:45.264Z,927.84
2017-05-06T00:42:04.654Z,927.85
2017-05-06T00:42:23.488Z,927.82
2017-05-06T00:42:43.478Z,927.8
2017-05-06T00:43:03.455Z,927.81
2017-05-06T00:43:23.406Z,927.86
2017-05-06T00:43:43.413Z,927.83
2017-05-06T00:44:03.362Z,927.82
2017-05-06T00:44:22.801Z,927.85
2017-05-06T00:44:42.831Z,927.88
2017-05-06T00:45:02.806Z,927.86
2017-05-06T00:45:22.792Z,927.86
2017-05-06T00:45:42.818Z,927.84
2017-05-06T00:46:02.801Z,927.79
2017-05-06T00:46:22.781Z,927.84
2017-05-06T00:46:42.754Z,927.82
2017-05-06T00:47:02.731Z,927.84
2017-05-06T00:47:22.710Z,927.84
2017-05-06T00:47:42.700Z,927.81
2017-05-06T00:48:02.675Z,927.79
2017-05-06T00:48:22.666Z,927.8
2017-05-06T00:48:42.623Z,927.78
2017-05-06T00:49:02.611Z,927.78
2017-05-06T00:49:22.548Z,927.73
2017-05-06T00:49:42.521Z,927.73
2017-05-06T00:50:02.519Z,927.74
2017-05-06T00:50:22.274Z,927.72
2017-05-06T00:50:42.263Z,927.73
2017-05-06T00:51:02.297Z,927.71
2017-05-06T00:51:21.961Z,927.68
2017-05-06T00:51:41.966Z,927.63
2017-05-06T00:52:01.974Z,927.67
2017-05-06T00:52:21.422Z,927.73
2017-05-06T00:52:41.395Z,927.72
2017-05-06T00:53:01.411Z,927.72
2017-05-06T00:53:21.391Z,927.73
2017-05-06T00:53:41.345Z,927.71
2017-05-06T00:54:00.810Z,927.66
2017-05-06T00:54:22.781Z,927.7
2017-05-06T00:54:41.794Z,927.69
2017-05-06T00:55:01.776Z,927.64
2017-05-06T00:55:21.236Z,927.67
2017-05-06T00:55:41.218Z,927.59
2017-05-06T00:56:01.156Z,927.63
2017-05-06T00:56:21.140Z,927.59
2017-05-06T00:56:41.134Z,927.66
2017-05-06T00:57:01.086Z,927.65
2017-05-06T00:57:21.079Z,927.6
2017-05-06T00:57:40.577Z,927.61
2017-05-06T00:58:00.506Z,927.63
2017-05-06T00:58:19.331Z,927.65
2017-05-06T00:58:38.752Z,927.64
2017-05-06T00:58:58.745Z,927.61
2017-05-06T00:59:18.178Z,927.6
2017-05-06T00:59:37.599Z,927.65
2017-05-06T00:59:57.593Z,927.63
2017-05-06T01:00:17.010Z,927.58
2017-05-06T01:00:37.000Z,927.54
2017-05-06T01:00:56.987Z,927.5
2017-05-06T01:01:16.986Z,927.45
2017-05-06T01:01:37.808Z,927.41
2017-05-06T01:01:57.772Z,927.4
2017-05-06T01:02:17.233Z,927.4
2017-05-06T01:02:37.235Z,927.44
2017-05-06T01:02:56.801Z,927.44
2017-05-06T01:03:16.832Z,927.47
2017-05-06T01:03:36.847Z,927.46
2017-05-06T01:03:56.855Z,927.45
2017-05-06T01:04:16.856Z,927.48
2017-05-06T01:04:36.806Z,927.46
2017-05-06T01:04:56.793Z,927.47
2017-05-06T01:05:16.226Z,927.44
2017-05-06T01:05:35.609Z,927.42
2017-05-06T01:05:55.591Z,927.38
2017-05-06T01:06:15.019Z,927.37
2017-05-06T01:06:35.040Z,927.32
2017-05-06T01:06:55.079Z,927.32
2017-05-06T01:07:14.555Z,927.32
2017-05-06T01:07:34.572Z,927.3
2017-05-06T01:07:54.557Z,927.31
2017-05-06T01:08:14.540Z,927.31
2017-05-06T01:08:33.928Z,927.29
2017-05-06T01:08:53.323Z,927.3
2017-05-06T01:09:13.313Z,927.3
2017-05-06T01:09:32.678Z,927.31
2017-05-06T01:09:52.098Z,927.27
2017-05-06T01:10:12.044Z,927.3
2017-05-06T01:10:30.910Z,927.32
2017-05-06T01:10:50.892Z,927.34
2017-05-06T01:11:10.877Z,927.38
2017-05-06T01:11:30.863Z,927.37
2017-05-06T01:11:50.839Z,927.37
2017-05-06T01:12:10.806Z,927.42
2017-05-06T01:12:30.764Z,927.47
2017-05-06T01:12:50.203Z,927.47
2017-05-06T01:13:10.181Z,927.48
2017-05-06T01:13:30.144Z,927.51
2017-05-06T01:13:50.156Z,927.55
2017-05-06T01:14:10.131Z,927.55
2017-05-06T01:14:28.977Z,927.57
2017-05-06T01:14:48.947Z,927.64
2017-05-06T01:15:08.408Z,927.64
2017-05-06T01:15:27.273Z,927.63
2017-05-06T01:15:47.221Z,927.64
2017-05-06T01:16:06.643Z,927.68
2017-05-06T01:16:26.064Z,927.7
2017-05-06T01:16:46.051Z,927.71
2017-05-06T01:17:06.011Z,927.71
2017-05-06T01:17:25.969Z,927.77
2017-05-06T01:17:45.388Z,927.81
2017-05-06T01:18:04.849Z,927.77
2017-05-06T01:18:23.719Z,927.83
2017-05-06T01:18:43.679Z,927.81
2017-05-06T01:19:03.670Z,927.8
2017-05-06T01:19:23.650Z,927.79
2017-05-06T01:19:43.642Z,927.76
2017-05-06T01:20:03.652Z,927.73
2017-05-06T01:20:23.636Z,927.68
2017-05-06T01:20:43.598Z,927.6
2017-05-06T01:21:03.594Z,927.61
2017-05-06T01:21:23.583Z,927.62
2017-05-06T01:21:43.536Z,927.69
2017-05-06T01:22:03.490Z,927.73
2017-05-06T01:22:23.521Z,927.77
2017-05-06T01:22:43.495Z,927.78
2017-05-06T01:23:03.468Z,927.78
2017-05-06T01:23:22.286Z,927.8
2017-05-06T01:23:42.289Z,927.82
2017-05-06T01:24:02.288Z,927.81
2017-05-06T01:24:21.887Z,927.84
2017-05-06T01:24:41.832Z,927.8
2017-05-06T01:25:01.828Z,927.83
2017-05-06T01:25:21.818Z,927.83
2017-05-06T01:25:41.224Z,927.85
2017-05-06T01:26:00.095Z,927.85
2017-05-06T01:26:18.976Z,927.85
2017-05-06T01:26:40.969Z,927.89
2017-05-06T01:27:00.955Z,927.89
2017-05-06T01:27:20.952Z,927.88
2017-05-06T01:27:40.886Z,927.87
2017-05-06T01:28:00.985Z,927.84
2017-05-06T01:28:20.937Z,927.87
2017-05-06T01:28:40.936Z,927.84
2017-05-06T01:29:00.906Z,927.81
2017-05-06T01:29:20.898Z,927.83
2017-05-06T01:29:40.319Z,927.79
2017-05-06T01:30:00.330Z,927.72
2017-05-06T01:30:19.716Z,927.75
2017-05-06T01:30:39.715Z,927.75
2017-05-06T01:30:59.153Z,927.7
2017-05-06T01:31:18.548Z,927.74
2017-05-06T01:31:38.494Z,927.72
2017-05-06T01:31:58.445Z,927.7
2017-05-06T01:32:18.397Z,927.71
2017-05-06T01:32:37.823Z,927.7
2017-05-06T01:32:57.935Z,927.72
2017-05-06T01:33:17.365Z,927.73
2017-05-06T01:33:37.318Z,927.73
2017-05-06T01:33:57.287Z,927.71
2017-05-06T01:34:16.736Z,927.71
2017-05-06T01:34:36.674Z,927.69
2017-05-06T01:34:56.655Z,927.68
2017-05-06T01:35:16.585Z,927.66
2017-05-06T01:35:36.019Z,927.68
2017-05-06T01:35:55.954Z,927.73
2017-05-06T01:36:15.374Z,927.68
2017-05-06T01:36:35.397Z,927.74
2017-05-06T01:36:55.375Z,927.77
2017-05-06T01:37:14.815Z,927.78
2017-05-06T01:37:34.795Z,927.84
2017-05-06T01:37:54.991Z,927.84
2017-05-06T01:38:14.447Z,927.87
2017-05-06T01:38:33.885Z,927.91
2017-05-06T01:38:53.841Z,927.9
2017-05-06T01:39:13.962Z,927.88
2017-05-06T01:39:47.358Z,927.92
2017-05-06T01:40:08.032Z,927.92
2017-05-06T01:40:27.545Z,927.91
2017-05-06T01:40:47.533Z,927.95
2017-05-06T01:41:07.512Z,927.95
2017-05-06T01:41:29.901Z,927.95
2017-05-06T01:41:49.979Z,928.01
2017-05-06T01:42:10.195Z,927.97
2017-05-06T01:42:30.769Z,927.94
2017-05-06T01:42:50.725Z,927.97
2017-05-06T01:43:10.734Z,927.96
2017-05-06T01:43:30.730Z,927.97
2017-05-06T01:43:50.742Z,928.02
2017-05-06T01:44:10.734Z,928
2017-05-06T01:44:30.723Z,928.01
2017-05-06T01:44:50.718Z,928.01
2017-05-06T01:45:10.732Z,928.02
2017-05-06T01:45:30.749Z,928.04
2017-05-06T01:45:50.155Z,928.01
2017-05-06T01:46:10.138Z,928.01
2017-05-06T01:46:30.111Z,927.99
2017-05-06T01:46:50.072Z,927.94
2017-05-06T01:47:10.057Z,927.95
2017-05-06T01:47:30.022Z,927.93
2017-05-06T01:47:49.952Z,927.94
2017-05-06T01:48:09.902Z,927.92
2017-05-06T01:48:29.313Z,927.96
2017-05-06T01:48:49.253Z,927.96
2017-05-06T01:49:09.244Z,927.95
2017-05-06T01:49:28.659Z,927.95
2017-05-06T01:49:48.613Z,928
2017-05-06T01:50:08.584Z,927.99
2017-05-06T01:50:28.559Z,927.99
2017-05-06T01:50:48.538Z,927.98
2017-05-06T01:51:08.532Z,927.93
2017-05-06T01:51:27.397Z,927.96
2017-05-06T01:51:47.368Z,927.93
2017-05-06T01:52:07.335Z,927.93
2017-05-06T01:52:26.783Z,927.96
2017-05-06T01:52:46.758Z,927.96
2017-05-06T01:53:06.743Z,927.94
2017-05-06T01:53:26.130Z,927.93
2017-05-06T01:53:46.105Z,927.97
2017-05-06T01:54:06.073Z,927.97
2017-05-06T01:54:26.052Z,927.99
2017-05-06T01:54:46.021Z,927.97
2017-05-06T01:55:05.989Z,927.97
2017-05-06T01:55:25.416Z,927.98
2017-05-06T01:55:59.392Z,927.99
2017-05-06T01:56:19.355Z,927.97
2017-05-06T01:56:39.313Z,927.97
2017-05-06T01:56:58.732Z,927.98
2017-05-06T01:57:18.713Z,927.94
2017-05-06T01:57:38.647Z,927.91
2017-05-06T01:57:58.638Z,927.91
2017-05-06T01:58:18.583Z,927.9
2017-05-06T01:58:38.586Z,927.9
2017-05-06T01:58:58.523Z,927.88
2017-05-06T01:59:17.903Z,927.87
2017-05-06T01:59:37.343Z,927.87
2017-05-06T01:59:56.726Z,927.87
2017-05-06T02:00:16.674Z,927.85
2017-05-06T02:00:36.650Z,927.8
2017-05-06T02:00:56.569Z,927.8
2017-05-06T02:01:15.470Z,927.76
2017-05-06T02:01:35.474Z,927.74
2017-05-06T02:01:55.452Z,927.73
2017-05-06T02:02:14.307Z,927.7
2017-05-06T02:02:33.951Z,927.72
2017-05-06T02:02:54.192Z,927.69
2017-05-06T02:03:14.176Z,927.71
2017-05-06T02:03:34.130Z,927.67
2017-05-06T02:03:54.111Z,927.68
2017-05-06T02:04:13.543Z,927.64
2017-05-06T02:04:33.537Z,927.65
2017-05-06T02:04:53.466Z,927.6
2017-05-06T02:05:13.497Z,927.61
2017-05-06T02:05:32.894Z,927.61
2017-05-06T02:05:52.878Z,927.59
2017-05-06T02:06:12.839Z,927.61
2017-05-06T02:06:32.830Z,927.58
2017-05-06T02:06:52.761Z,927.61
2017-05-06T02:07:12.714Z,927.6
2017-05-06T02:07:32.116Z,927.62
2017-05-06T02:07:52.095Z,927.6
2017-05-06T02:08:12.050Z,927.61
2017-05-06T02:08:32.049Z,927.61
2017-05-06T02:08:51.464Z,927.62
2017-05-06T02:09:10.882Z,927.59
2017-05-06T02:09:29.760Z,927.6
2017-05-06T02:09:49.745Z,927.6
2017-05-06T02:10:09.739Z,927.58
2017-05-06T02:10:29.705Z,927.58
2017-05-06T02:10:49.096Z,927.58
2017-05-06T02:11:08.511Z,927.59
2017-05-06T02:11:27.892Z,927.55
2017-05-06T02:11:47.914Z,927.54
2017-05-06T02:12:07.894Z,927.56
2017-05-06T02:12:27.310Z,927.58
2017-05-06T02:12:47.282Z,927.56
2017-05-06T02:13:07.255Z,927.57
2017-05-06T02:13:26.694Z,927.55
2017-05-06T02:13:46.690Z,927.55
2017-05-06T02:14:06.658Z,927.56
2017-05-06T02:14:26.627Z,927.57
2017-05-06T02:14:46.619Z,927.54
2017-05-06T02:15:06.556Z,927.57
2017-05-06T02:15:26.499Z,927.59
2017-05-06T02:15:46.463Z,927.54
2017-05-06T02:16:05.278Z,927.53
2017-05-06T02:16:25.267Z,927.59
2017-05-06T02:16:44.637Z,927.57
2017-05-06T02:17:04.592Z,927.59
2017-05-06T02:17:23.996Z,927.57
2017-05-06T02:17:43.407Z,927.56
2017-05-06T02:18:03.607Z,927.62
2017-05-06T02:18:23.632Z,927.61
2017-05-06T02:18:43.571Z,927.6
2017-05-06T02:19:03.563Z,927.57
2017-05-06T02:19:22.953Z,927.58
2017-05-06T02:19:41.822Z,927.58
2017-05-06T02:20:01.818Z,927.61
2017-05-06T02:20:20.659Z,927.58
2017-05-06T02:20:40.638Z,927.6
2017-05-06T02:21:00.587Z,927.59
2017-05-06T02:21:20.561Z,927.6
2017-05-06T02:21:40.566Z,927.6
2017-05-06T02:22:00.544Z,927.61
2017-05-06T02:22:19.931Z,927.57
2017-05-06T02:22:39.880Z,927.54
2017-05-06T02:22:59.856Z,927.56
2017-05-06T02:23:19.829Z,927.58
2017-05-06T02:23:39.783Z,927.56
2017-05-06T02:23:59.214Z,927.56
2017-05-06T02:24:18.671Z,927.56
2017-05-06T02:24:38.092Z,927.55
2017-05-06T02:24:58.063Z,927.53
2017-05-06T02:25:17.469Z,927.53
2017-05-06T02:25:36.895Z,927.59
2017-05-06T02:25:56.842Z,927.53
2017-05-06T02:26:15.724Z,927.58
2017-05-06T02:26:35.688Z,927.54
2017-05-06T02:26:55.631Z,927.52
2017-05-06T02:27:15.028Z,927.51
2017-05-06T02:27:35.002Z,927.47
2017-05-06T02:27:54.983Z,927.51
2017-05-06T02:28:14.964Z,927.5
2017-05-06T02:28:34.969Z,927.5
2017-05-06T02:28:54.933Z,927.47
2017-05-06T02:29:14.899Z,927.44
2017-05-06T02:29:34.907Z,927.46
2017-05-06T02:29:54.879Z,927.47
2017-05-06T02:30:14.869Z,927.49
2017-05-06T02:30:34.830Z,927.48
2017-05-06T02:30:54.809Z,927.47
2017-05-06T02:31:14.221Z,927.45
2017-05-06T02:31:34.226Z,927.48
2017-05-06T02:31:53.650Z,927.48
2017-05-06T02:32:13.633Z,927.47
2017-05-06T02:32:33.048Z,927.47
2017-05-06T02:32:53.035Z,927.43
2017-05-06T02:33:13.022Z,927.45
2017-05-06T02:33:32.997Z,927.42
2017-05-06T02:33:53.000Z,927.48
2017-05-06T02:34:12.413Z,927.45
2017-05-06T02:34:31.789Z,927.44
2017-05-06T02:34:51.724Z,927.43
2017-05-06T02:35:11.704Z,927.43
2017-05-06T02:35:30.548Z,927.43
2017-05-06T02:35:50.532Z,927.43
2017-05-06T02:36:10.507Z,927.42
2017-05-06T02:36:30.496Z,927.41
2017-05-06T02:36:50.509Z,927.4
2017-05-06T02:37:10.479Z,927.41
2017-05-06T02:37:29.896Z,927.41
2017-05-06T02:37:50.228Z,927.43
2017-05-06T02:38:10.206Z,927.37
2017-05-06T02:38:29.578Z,927.4
2017-05-06T02:38:48.977Z,927.4
2017-05-06T02:39:08.950Z,927.37
2017-05-06T02:39:28.383Z,927.42
2017-05-06T02:39:48.355Z,927.4
2017-05-06T02:40:08.299Z,927.42
2017-05-06T02:40:27.678Z,927.43
2017-05-06T02:40:47.076Z,927.37
2017-05-06T02:41:20.336Z,927.4
2017-05-06T02:41:40.280Z,927.38
2017-05-06T02:42:00.293Z,927.37
2017-05-06T02:42:19.165Z,927.4
2017-05-06T02:42:39.149Z,927.41
2017-05-06T02:42:59.147Z,927.42
2017-05-06T02:43:19.137Z,927.39
2017-05-06T02:43:39.124Z,927.4
2017-05-06T02:43:58.524Z,927.41
2017-05-06T02:44:18.504Z,927.38
2017-05-06T02:44:38.474Z,927.37
2017-05-06T02:44:58.464Z,927.37
2017-05-06T02:45:17.862Z,927.36
2017-05-06T02:45:37.860Z,927.38
2017-05-06T02:45:57.251Z,927.39
2017-05-06T02:46:17.214Z,927.37
2017-05-06T02:46:37.238Z,927.37
2017-05-06T02:46:56.636Z,927.36
2017-05-06T02:47:16.621Z,927.35
2017-05-06T02:47:35.495Z,927.37
2017-05-06T02:47:55.408Z,927.34
2017-05-06T02:48:14.830Z,927.32
2017-05-06T02:48:34.831Z,927.35
2017-05-06T02:48:54.780Z,927.32
2017-05-06T02:49:14.798Z,927.3
2017-05-06T02:49:34.748Z,927.29
2017-05-06T02:49:54.704Z,927.3
2017-05-06T02:50:14.669Z,927.29
2017-05-06T02:50:34.655Z,927.27
2017-05-06T02:50:54.642Z,927.27
2017-05-06T02:51:14.619Z,927.23
2017-05-06T02:51:34.575Z,927.29
2017-05-06T02:51:54.572Z,927.27
2017-05-06T02:52:13.984Z,927.25
2017-05-06T02:52:33.936Z,927.24
2017-05-06T02:52:53.934Z,927.25
2017-05-06T02:53:13.351Z,927.21
2017-05-06T02:53:33.312Z,927.25
2017-05-06T02:53:52.712Z,927.23
2017-05-06T02:54:12.128Z,927.23
2017-05-06T02:54:32.124Z,927.23
2017-05-06T02:54:52.065Z,927.21
2017-05-06T02:55:12.007Z,927.15
2017-05-06T02:55:32.003Z,927.16
2017-05-06T02:55:51.972Z,927.17
2017-05-06T02:56:11.936Z,927.13
2017-05-06T02:56:31.365Z,927.12
2017-05-06T02:56:51.339Z,927.12
2017-05-06T02:57:11.283Z,927.11
2017-05-06T02:57:30.667Z,927.07
2017-05-06T02:57:50.749Z,927.07
2017-05-06T02:58:10.132Z,927.03
2017-05-06T02:58:29.540Z,927.08
2017-05-06T02:58:49.529Z,927.04
2017-05-06T02:59:09.520Z,927
2017-05-06T02:59:28.929Z,927.06
2017-05-06T02:59:48.887Z,927.05
2017-05-06T03:00:08.886Z,927.03
2017-05-06T03:00:27.749Z,927.05
2017-05-06T03:00:47.163Z,927.02
2017-05-06T03:01:07.120Z,927.03
2017-05-06T03:01:26.527Z,927.03
2017-05-06T03:01:46.499Z,927.04
2017-05-06T03:02:06.480Z,927.06
2017-05-06T03:02:26.475Z,927.03
2017-05-06T03:02:46.465Z,927.04
2017-05-06T03:03:06.474Z,927.02
2017-05-06T03:03:25.888Z,927.01
2017-05-06T03:03:45.851Z,927
2017-05-06T03:04:05.880Z,927.01
2017-05-06T03:04:25.299Z,926.99
2017-05-06T03:04:45.301Z,927.01
2017-05-06T03:05:05.245Z,926.97
2017-05-06T03:05:24.644Z,926.99
2017-05-06T03:05:44.615Z,926.97
2017-05-06T03:06:04.056Z,926.97
2017-05-06T03:06:23.476Z,926.92
2017-05-06T03:06:42.879Z,926.94
2017-05-06T03:07:02.295Z,926.95
2017-05-06T03:07:21.712Z,926.94
2017-05-06T03:07:41.708Z,926.94
2017-05-06T03:08:01.678Z,926.91
2017-05-06T03:08:21.623Z,926.93
2017-05-06T03:08:41.600Z,926.92
2017-05-06T03:09:01.623Z,926.93
2017-05-06T03:09:21.616Z,926.88
2017-05-06T03:09:41.612Z,926.88
2017-05-06T03:10:01.615Z,926.89
2017-05-06T03:10:21.035Z,926.92
2017-05-06T03:10:41.004Z,926.91
2017-05-06T03:11:00.999Z,926.93
2017-05-06T03:11:20.440Z,926.93
2017-05-06T03:11:40.437Z,926.97
2017-05-06T03:12:00.422Z,926.95
2017-05-06T03:12:18.177Z,926.99
2017-05-06T03:12:38.130Z,927.01
2017-05-06T03:12:58.282Z,927.01
2017-05-06T03:13:17.713Z,926.97
2017-05-06T03:13:37.761Z,926.98
2017-05-06T03:13:57.726Z,927.01
2017-05-06T03:14:17.410Z,926.99
2017-05-06T03:14:37.435Z,927.03
2017-05-06T03:14:56.881Z,927.02
2017-05-06T03:15:16.318Z,927.04
2017-05-06T03:15:36.625Z,927.07
2017-05-06T03:15:56.088Z,927.05
2017-05-06T03:16:16.107Z,927.07
2017-05-06T03:16:36.093Z,927.06
2017-05-06T03:16:56.099Z,927.05
2017-05-06T03:17:15.567Z,927.07
2017-05-06T03:17:35.522Z,927.1
2017-05-06T03:17:55.584Z,927.08
2017-05-06T03:18:14.964Z,927.12
2017-05-06T03:18:34.977Z,927.12
2017-05-06T03:18:54.951Z,927.1
2017-05-06T03:19:14.398Z,927.1
2017-05-06T03:19:34.353Z,927.13
2017-05-06T03:19:54.312Z,927.12
2017-05-06T03:20:14.253Z,927.07
2017-05-06T03:20:34.198Z,927.08
2017-05-06T03:20:54.189Z,927.06
2017-05-06T03:21:14.156Z,927.12
2017-05-06T03:21:33.622Z,927.11
2017-05-06T03:21:53.545Z,927.1
2017-05-06T03:22:13.515Z,927.15
2017-05-06T03:22:32.949Z,927.12
2017-05-06T03:22:52.927Z,927.13
2017-05-06T03:23:12.903Z,927.13
2017-05-06T03:23:32.897Z,927.18
2017-05-06T03:23:52.841Z,927.18
2017-05-06T03:24:12.246Z,927.19
2017-05-06T03:24:32.228Z,927.2
2017-05-06T03:24:52.206Z,927.16
2017-05-06T03:25:11.668Z,927.19
2017-05-06T03:25:31.662Z,927.21
2017-05-06T03:25:51.656Z,927.16
2017-05-06T03:26:11.661Z,927.22
2017-05-06T03:26:31.664Z,927.25
2017-05-06T03:26:51.634Z,927.27
2017-05-06T03:27:11.642Z,927.24
2017-05-06T03:27:31.584Z,927.27
2017-05-06T03:27:51.546Z,927.23
2017-05-06T03:28:11.561Z,927.23
2017-05-06T03:28:31.511Z,927.29
2017-05-06T03:28:51.505Z,927.27
2017-05-06T03:29:11.498Z,927.29
2017-05-06T03:29:31.490Z,927.29
2017-05-06T03:29:50.923Z,927.31
2017-05-06T03:30:10.858Z,927.3
2017-05-06T03:30:29.705Z,927.31
2017-05-06T03:30:49.651Z,927.27
2017-05-06T03:31:09.624Z,927.31
2017-05-06T03:31:29.566Z,927.3
2017-05-06T03:31:49.512Z,927.32
2017-05-06T03:32:08.904Z,927.3
2017-05-06T03:32:28.269Z,927.31
2017-05-06T03:32:48.363Z,927.32
2017-05-06T03:33:08.354Z,927.31
2017-05-06T03:33:27.205Z,927.3
2017-05-06T03:33:47.202Z,927.31
2017-05-06T03:34:07.172Z,927.32
2017-05-06T03:34:26.617Z,927.3
2017-05-06T03:34:46.611Z,927.32
2017-05-06T03:35:06.540Z,927.31
2017-05-06T03:35:26.490Z,927.34
2017-05-06T03:35:46.484Z,927.34
2017-05-06T03:36:06.451Z,927.34
2017-05-06T03:36:25.317Z,927.34
2017-05-06T03:36:45.280Z,927.36
2017-05-06T03:37:05.257Z,927.34
2017-05-06T03:37:25.285Z,927.33
2017-05-06T03:37:45.268Z,927.37
2017-05-06T03:38:05.256Z,927.32
2017-05-06T03:38:23.522Z,927.35
2017-05-06T03:38:42.913Z,927.33
2017-05-06T03:39:02.915Z,927.35
2017-05-06T03:39:22.331Z,927.36
2017-05-06T03:39:41.760Z,927.36
2017-05-06T03:40:01.755Z,927.38
2017-05-06T03:40:21.700Z,927.36
2017-05-06T03:40:41.109Z,927.36
2017-05-06T03:41:00.538Z,927.37
2017-05-06T03:41:19.385Z,927.36
2017-05-06T03:41:39.367Z,927.36
2017-05-06T03:41:59.363Z,927.34
2017-05-06T03:42:18.794Z,927.38
2017-05-06T03:42:38.768Z,927.35
2017-05-06T03:42:58.997Z,927.4
2017-05-06T03:43:18.351Z,927.4
2017-05-06T03:43:37.767Z,927.43
2017-05-06T03:43:57.741Z,927.39
2017-05-06T03:44:17.732Z,927.36
2017-05-06T03:44:37.693Z,927.35
2017-05-06T03:44:57.669Z,927.38
2017-05-06T03:45:17.595Z,927.36
2017-05-06T03:45:37.576Z,927.37
2017-05-06T03:45:57.571Z,927.38
2017-05-06T03:46:17.540Z,927.4
2017-05-06T03:46:37.506Z,927.38
2017-05-06T03:46:56.342Z,927.38
2017-05-06T03:47:16.327Z,927.4
2017-05-06T03:47:36.267Z,927.41
2017-05-06T03:47:56.337Z,927.37
2017-05-06T03:48:16.321Z,927.41
2017-05-06T03:48:36.318Z,927.4
2017-05-06T03:48:56.274Z,927.38
2017-05-06T03:49:15.687Z,927.37
2017-05-06T03:49:35.686Z,927.36
2017-05-06T03:49:55.657Z,927.37
2017-05-06T03:50:15.665Z,927.38
2017-05-06T03:50:35.087Z,927.35
2017-05-06T03:50:55.046Z,927.36
2017-05-06T03:51:15.028Z,927.37
2017-05-06T03:51:35.015Z,927.38
2017-05-06T03:51:54.957Z,927.38
2017-05-06T03:52:14.915Z,927.36
2017-05-06T03:52:34.903Z,927.38
2017-05-06T03:52:54.857Z,927.39
2017-05-06T03:53:14.824Z,927.35
2017-05-06T03:53:34.794Z,927.39
2017-05-06T03:53:54.220Z,927.4
2017-05-06T03:54:14.196Z,927.4
2017-05-06T03:54:34.169Z,927.38
2017-05-06T03:54:54.155Z,927.36
2017-05-06T03:55:13.573Z,927.39
2017-05-06T03:55:33.550Z,927.39
2017-05-06T03:55:53.026Z,927.38
2017-05-06T03:56:12.495Z,927.37
2017-05-06T03:56:32.529Z,927.4
2017-05-06T03:56:52.553Z,927.37
2017-05-06T03:57:12.018Z,927.38
2017-05-06T03:57:31.501Z,927.38
2017-05-06T03:57:51.900Z,927.4
2017-05-06T03:58:11.943Z,927.4
2017-05-06T03:58:30.872Z,927.41
2017-05-06T03:58:50.373Z,927.4
2017-05-06T03:59:10.381Z,927.37
2017-05-06T03:59:30.403Z,927.38
2017-05-06T03:59:50.430Z,927.38
2017-05-06T04:00:10.466Z,927.39
2017-05-06T04:00:29.940Z,927.34
2017-05-06T04:00:49.971Z,927.38
2017-05-06T04:01:09.987Z,927.33
2017-05-06T04:01:29.441Z,927.34
2017-05-06T04:01:49.473Z,927.36
2017-05-06T04:02:08.913Z,927.33
2017-05-06T04:02:28.379Z,927.32
2017-05-06T04:02:48.431Z,927.33
2017-05-06T04:03:08.594Z,927.31
2017-05-06T04:03:28.602Z,927.26
2017-05-06T04:03:48.643Z,927.25
2017-05-06T04:04:08.652Z,927.29
2017-05-06T04:04:28.130Z,927.3
2017-05-06T04:04:48.176Z,927.27
2017-05-06T04:05:08.188Z,927.25
2017-05-06T04:05:28.251Z,927.26
2017-05-06T04:05:48.263Z,927.21
2017-05-06T04:06:07.723Z,927.22
2017-05-06T04:06:27.190Z,927.2
2017-05-06T04:06:47.228Z,927.2
2017-05-06T04:07:07.261Z,927.22
2017-05-06T04:07:27.270Z,927.2
2017-05-06T04:07:47.298Z,927.22
2017-05-06T04:08:07.377Z,927.24
2017-05-06T04:08:27.416Z,927.21
2017-05-06T04:08:47.455Z,927.21
2017-05-06T04:09:07.452Z,927.23
2017-05-06T04:09:26.922Z,927.18
2017-05-06T04:09:46.937Z,927.19